Time;durP1;ratioP1;P1;durP2;ratioP2;P2;SDS_P1;SDS_P2;PMS_P1;PMS_P2;Temp;Humidity;BMP_temperature;BMP_pressure;BME280_temperature;BME280_humidity;BME280_pressure;Samples;Min_cycle;Max_cycle;Signal;HPM_P1;HPM_P2
2021/11/24 00:00:44;;;;;;;;;27.67;25.67;;;;;;;;4910915;28;44821;-85
2021/11/24 00:03:09;;;;;;;;;37.67;33.00;;;;;;;;4891924;29;45869;-84
2021/11/24 00:05:34;;;;;;;;;33.33;30.00;;;;;;;;4907875;29;46187;-85
2021/11/24 00:08:00;;;;;;;;;37.67;31.00;;;;;;;;4891915;29;45708;-85
2021/11/24 00:10:29;;;;;;;;;31.00;29.33;;;;;;;;4891768;29;45457;-85
2021/11/24 00:12:55;;;;;;;;;33.33;31.00;;;;;;;;4891008;29;45347;-85
2021/11/24 00:15:21;;;;;;;;;39.00;29.00;;;;;;;;4890205;29;47254;-84
2021/11/24 00:17:46;;;;;;;;;30.67;27.00;;;;;;;;4891249;29;45821;-84
2021/11/24 00:20:12;;;;;;;;;37.67;33.67;;;;;;;;4894001;29;45353;-85
2021/11/24 00:22:37;;;;;;;;;26.00;23.67;;;;;;;;4893129;29;44991;-85
2021/11/24 00:25:03;;;;;;;;;36.33;32.33;;;;;;;;4877317;29;46526;-84
2021/11/24 00:27:29;;;;;;;;;39.33;32.67;;;;;;;;4908907;29;45334;-84
2021/11/24 00:29:55;;;;;;;;;30.33;30.33;;;;;;;;4893053;29;44820;-85
2021/11/24 00:32:20;;;;;;;;;30.00;28.67;;;;;;;;4910282;29;45463;-85
2021/11/24 00:34:47;;;;;;;;;33.00;28.67;;;;;;;;4906104;29;46939;-85
2021/11/24 00:37:12;;;;;;;;;39.67;36.00;;;;;;;;4907645;29;45395;-85
2021/11/24 00:39:37;;;;;;;;;33.67;32.00;;;;;;;;4889722;29;45802;-85
2021/11/24 00:42:03;;;;;;;;;34.67;32.00;;;;;;;;4908450;29;45775;-85
2021/11/24 00:44:28;;;;;;;;;30.33;27.33;;;;;;;;4890696;29;46965;-84
2021/11/24 00:46:53;;;;;;;;;30.00;29.00;;;;;;;;4909818;29;45397;-85
2021/11/24 00:49:19;;;;;;;;;32.00;25.67;;;;;;;;4892873;28;44801;-85
2021/11/24 00:51:44;;;;;;;;;29.67;27.33;;;;;;;;4909549;29;45335;-84
2021/11/24 00:54:12;;;;;;;;;26.00;25.00;;;;;;;;4891009;29;47064;-85
2021/11/24 00:56:38;;;;;;;;;42.67;33.33;;;;;;;;4891452;29;45524;-85
2021/11/24 00:59:06;;;;;;;;;28.00;25.00;;;;;;;;4890826;29;45488;-85
2021/11/24 01:01:32;;;;;;;;;35.00;28.00;;;;;;;;4909882;29;45237;-85
2021/11/24 01:03:57;;;;;;;;;31.67;27.00;;;;;;;;4893335;29;47077;-85
2021/11/24 01:06:23;;;;;;;;;28.00;26.67;;;;;;;;4910454;29;45852;-84
2021/11/24 01:08:49;;;;;;;;;38.00;29.00;;;;;;;;4894473;29;45481;-84
2021/11/24 01:11:14;;;;;;;;;34.00;28.33;;;;;;;;4894120;29;44773;-84
2021/11/24 01:13:39;;;;;;;;;29.33;25.33;;;;;;;;4912163;28;45568;-84
2021/11/24 01:16:05;;;;;;;;;24.00;23.00;;;;;;;;4911657;28;45395;-84
2021/11/24 01:18:30;;;;;;;;;37.33;29.33;;;;;;;;4890445;29;45363;-84
2021/11/24 01:20:56;;;;;;;;;34.33;27.67;;;;;;;;4892429;29;45328;-85
2021/11/24 01:23:21;;;;;;;;;36.33;33.33;;;;;;;;4892029;29;48307;-84
2021/11/24 01:25:46;;;;;;;;;31.00;30.67;;;;;;;;4891160;29;45794;-84
2021/11/24 01:28:11;;;;;;;;;31.67;27.00;;;;;;;;4891418;29;45545;-84
2021/11/24 01:30:37;;;;;;;;;20.67;19.33;;;;;;;;4908009;29;45389;-84
2021/11/24 01:33:05;;;;;;;;;28.67;25.67;;;;;;;;4910962;29;46748;-85
2021/11/24 01:35:30;;;;;;;;;32.67;26.67;;;;;;;;4893150;29;45454;-85
2021/11/24 01:37:55;;;;;;;;;32.67;27.67;;;;;;;;4894395;29;45357;-85
2021/11/24 01:40:21;;;;;;;;;29.00;26.00;;;;;;;;4911775;29;45370;-85
2021/11/24 01:42:46;;;;;;;;;38.00;30.00;;;;;;;;4910572;28;45390;-84
2021/11/24 01:45:14;;;;;;;;;28.33;26.67;;;;;;;;4894562;29;45409;-84
2021/11/24 01:47:39;;;;;;;;;24.33;24.33;;;;;;;;4912542;28;45511;-85
2021/11/24 01:50:05;;;;;;;;;37.67;36.33;;;;;;;;4923223;28;45405;-85
2021/11/24 01:52:32;;;;;;;;;29.33;26.67;;;;;;;;4893062;29;47407;-85
2021/11/24 01:54:57;;;;;;;;;23.67;23.67;;;;;;;;4893833;29;45435;-85
2021/11/24 01:57:27;;;;;;;;;29.67;24.00;;;;;;;;4893301;29;45728;-84
2021/11/24 01:59:52;;;;;;;;;31.00;28.67;;;;;;;;4893494;29;45352;-84
2021/11/24 02:02:19;;;;;;;;;29.00;27.67;;;;;;;;4896722;29;47234;-84
2021/11/24 02:04:44;;;;;;;;;24.67;24.67;;;;;;;;4913321;29;44888;-84
2021/11/24 02:07:09;;;;;;;;;30.00;28.00;;;;;;;;4913825;29;45828;-84
2021/11/24 02:09:34;;;;;;;;;29.33;29.00;;;;;;;;4913169;29;45619;-84
2021/11/24 02:12:00;;;;;;;;;33.67;29.00;;;;;;;;4895364;29;47173;-85
2021/11/24 02:14:26;;;;;;;;;34.67;29.00;;;;;;;;4913404;29;44903;-84
2021/11/24 02:16:52;;;;;;;;;37.00;27.00;;;;;;;;4893168;29;45418;-84
2021/11/24 02:19:18;;;;;;;;;31.67;28.67;;;;;;;;4893162;29;45927;-84
2021/11/24 02:21:50;;;;;;;;;38.00;32.33;;;;;;;;4892646;29;47233;-83
2021/11/24 02:24:16;;;;;;;;;33.00;29.33;;;;;;;;4892860;29;45714;-84
2021/11/24 02:26:41;;;;;;;;;40.33;34.00;;;;;;;;4892534;29;45908;-85
2021/11/24 02:29:07;;;;;;;;;39.33;37.33;;;;;;;;4891136;29;44881;-84
2021/11/24 02:31:32;;;;;;;;;44.33;36.00;;;;;;;;4909145;29;45464;-84
2021/11/24 02:33:58;;;;;;;;;51.75;41.75;;;;;;;;4912550;28;45749;-84
2021/11/24 02:36:24;;;;;;;;;41.33;38.67;;;;;;;;4896223;29;45452;-84
2021/11/24 02:38:50;;;;;;;;;43.50;40.75;;;;;;;;4895925;29;45400;-85
2021/11/24 02:41:15;;;;;;;;;44.33;37.33;;;;;;;;4895372;29;46484;-85
2021/11/24 02:43:40;;;;;;;;;49.00;38.50;;;;;;;;4895518;29;45803;-84
2021/11/24 02:46:06;;;;;;;;;47.50;41.25;;;;;;;;4895611;29;45749;-86
2021/11/24 02:48:31;;;;;;;;;45.67;41.00;;;;;;;;4909292;29;45676;-84
2021/11/24 02:50:57;;;;;;;;;46.25;41.50;;;;;;;;4892073;29;47090;-85
2021/11/24 02:53:26;;;;;;;;;51.50;42.75;;;;;;;;4893997;29;45716;-85
2021/11/24 02:55:52;;;;;;;;;57.33;43.33;;;;;;;;4908921;29;45526;-84
2021/11/24 02:58:17;;;;;;;;;38.67;35.00;;;;;;;;4892921;29;45631;-85
2021/11/24 03:00:43;;;;;;;;;49.25;43.25;;;;;;;;4895225;29;47939;-84
2021/11/24 03:03:08;;;;;;;;;42.67;36.67;;;;;;;;4911694;29;45408;-84
2021/11/24 03:05:34;;;;;;;;;37.00;35.33;;;;;;;;4896267;29;45438;-84
2021/11/24 03:08:00;;;;;;;;;38.67;37.67;;;;;;;;4896593;29;45532;-84
2021/11/24 03:10:25;;;;;;;;;42.75;40.75;;;;;;;;4895710;29;47466;-85
2021/11/24 03:12:51;;;;;;;;;46.25;39.00;;;;;;;;4896593;29;45424;-85
2021/11/24 03:15:16;;;;;;;;;52.00;41.50;;;;;;;;4896561;29;45412;-84
2021/11/24 03:17:41;;;;;;;;;45.33;40.00;;;;;;;;4893527;29;45291;-84
2021/11/24 03:20:08;;;;;;;;;45.67;39.67;;;;;;;;4909963;29;46401;-84
2021/11/24 03:22:34;;;;;;;;;40.33;37.67;;;;;;;;4907919;29;45631;-84
2021/11/24 03:25:00;;;;;;;;;51.67;40.00;;;;;;;;4892194;29;45478;-84
2021/11/24 03:30:31;;;;;;;;;39.00;36.00;;;;;;;;4908857;29;45786;-84
2021/11/24 03:32:57;;;;;;;;;39.00;36.00;;;;;;;;4912037;29;46017;-84
2021/11/24 03:35:23;;;;;;;;;37.33;32.33;;;;;;;;4895107;29;45889;-84
2021/11/24 03:37:51;;;;;;;;;39.00;32.00;;;;;;;;4911305;29;45387;-84
2021/11/24 03:40:17;;;;;;;;;32.00;29.00;;;;;;;;4910764;29;46493;-84
2021/11/24 03:42:46;;;;;;;;;39.00;31.67;;;;;;;;4895407;29;45997;-84
2021/11/24 03:45:12;;;;;;;;;38.00;30.67;;;;;;;;4895263;29;45358;-84
2021/11/24 03:47:37;;;;;;;;;35.33;28.33;;;;;;;;4890436;29;45439;-84
2021/11/24 03:50:03;;;;;;;;;35.33;30.33;;;;;;;;4907820;29;45779;-84
2021/11/24 03:52:28;;;;;;;;;38.00;29.67;;;;;;;;4890941;29;45595;-84
2021/11/24 03:54:54;;;;;;;;;31.00;30.67;;;;;;;;4892938;29;45447;-84
2021/11/24 03:57:19;;;;;;;;;35.00;30.00;;;;;;;;4892346;29;45405;-84
2021/11/24 03:59:44;;;;;;;;;31.33;29.33;;;;;;;;4892387;29;46872;-84
2021/11/24 04:02:09;;;;;;;;;36.00;32.00;;;;;;;;4892839;29;45773;-84
2021/11/24 04:04:35;;;;;;;;;36.00;33.00;;;;;;;;4893627;29;45720;-84
2021/11/24 04:07:02;;;;;;;;;29.00;27.00;;;;;;;;4893114;29;45413;-84
2021/11/24 04:09:27;;;;;;;;;32.33;28.00;;;;;;;;4894603;29;48592;-84
2021/11/24 04:11:59;;;;;;;;;35.00;29.67;;;;;;;;4894872;29;45385;-84
2021/11/24 04:14:24;;;;;;;;;29.33;25.00;;;;;;;;4910804;28;45421;-84
2021/11/24 04:16:50;;;;;;;;;31.00;26.33;;;;;;;;4911163;29;45909;-84
2021/11/24 04:19:15;;;;;;;;;36.33;31.67;;;;;;;;4909332;29;46863;-85
2021/11/24 04:21:40;;;;;;;;;33.67;26.00;;;;;;;;4892606;29;45755;-84
2021/11/24 04:24:06;;;;;;;;;33.33;27.33;;;;;;;;4892470;29;45471;-83
2021/11/24 04:26:31;;;;;;;;;33.00;26.67;;;;;;;;4910520;29;45341;-84
2021/11/24 04:28:56;;;;;;;;;33.00;30.00;;;;;;;;4911519;29;46677;-83
2021/11/24 04:31:22;;;;;;;;;31.33;28.00;;;;;;;;4909817;29;45281;-84
2021/11/24 04:33:47;;;;;;;;;25.67;22.67;;;;;;;;4910404;29;45265;-84
2021/11/24 04:36:13;;;;;;;;;27.67;24.33;;;;;;;;4911139;29;45764;-84
2021/11/24 04:38:38;;;;;;;;;32.67;28.33;;;;;;;;4893350;29;47118;-85
2021/11/24 04:41:04;;;;;;;;;32.00;26.00;;;;;;;;4893279;29;45717;-85
2021/11/24 04:43:32;;;;;;;;;24.00;19.33;;;;;;;;4895714;29;45853;-85
2021/11/24 04:46:00;;;;;;;;;37.67;33.33;;;;;;;;4896268;29;45879;-85
2021/11/24 04:48:25;;;;;;;;;31.00;26.67;;;;;;;;4891866;29;47089;-84
2021/11/24 04:50:51;;;;;;;;;19.00;18.67;;;;;;;;4908091;29;45715;-84
2021/11/24 04:53:22;;;;;;;;;28.33;25.67;;;;;;;;4890958;29;45376;-84
2021/11/24 04:55:48;;;;;;;;;31.00;23.00;;;;;;;;4891340;29;45434;-84
2021/11/24 04:58:13;;;;;;;;;34.33;30.67;;;;;;;;4890588;29;47423;-85
2021/11/24 05:00:39;;;;;;;;;31.33;27.33;;;;;;;;4911586;28;45441;-85
2021/11/24 05:03:05;;;;;;;;;33.33;25.33;;;;;;;;4912382;28;45492;-85
2021/11/24 05:05:32;;;;;;;;;36.00;26.00;;;;;;;;4894353;29;44895;-84
2021/11/24 05:07:58;;;;;;;;;32.00;26.00;;;;;;;;4894703;29;47342;-85
2021/11/24 05:10:25;;;;;;;;;32.67;29.67;;;;;;;;4893348;29;45711;-84
2021/11/24 05:12:51;;;;;;;;;34.33;31.00;;;;;;;;4893716;29;44808;-84
2021/11/24 05:15:23;;;;;;;;;31.33;25.33;;;;;;;;4907919;29;45415;-84
2021/11/24 05:17:54;;;;;;;;;29.33;23.67;;;;;;;;4906825;29;45695;-84
2021/11/24 05:20:23;;;;;;;;;29.67;25.33;;;;;;;;4905862;29;45426;-84
2021/11/24 05:22:49;;;;;;;;;36.00;27.33;;;;;;;;4889367;29;45376;-84
2021/11/24 05:25:14;;;;;;;;;28.67;24.00;;;;;;;;4892265;29;45357;-84
2021/11/24 05:27:39;;;;;;;;;31.00;27.67;;;;;;;;4894326;29;48408;-85
2021/11/24 05:30:05;;;;;;;;;29.67;25.00;;;;;;;;4894756;28;45456;-84
2021/11/24 05:32:30;;;;;;;;;30.67;27.33;;;;;;;;4915414;29;45428;-85
2021/11/24 05:34:55;;;;;;;;;18.67;15.33;;;;;;;;4915363;28;44788;-84
2021/11/24 05:37:21;;;;;;;;;32.67;25.67;;;;;;;;4913154;29;45491;-85
2021/11/24 05:39:46;;;;;;;;;30.67;27.67;;;;;;;;4897330;29;45481;-85
2021/11/24 05:42:11;;;;;;;;;26.33;25.33;;;;;;;;4914129;29;45516;-85
2021/11/24 05:44:38;;;;;;;;;31.67;29.67;;;;;;;;4914502;29;45455;-85
2021/11/24 05:47:08;;;;;;;;;33.33;29.33;;;;;;;;4893388;29;47225;-85
2021/11/24 05:49:35;;;;;;;;;33.33;26.33;;;;;;;;4894686;29;45749;-84
2021/11/24 05:52:01;;;;;;;;;32.67;26.00;;;;;;;;4895546;29;45444;-85
2021/11/24 05:54:26;;;;;;;;;25.00;23.33;;;;;;;;4911460;29;45454;-85
2021/11/24 05:56:51;;;;;;;;;28.67;21.67;;;;;;;;4910761;29;45393;-84
2021/11/24 05:59:18;;;;;;;;;29.00;25.00;;;;;;;;4895105;29;45497;-85
2021/11/24 06:01:43;;;;;;;;;29.00;25.67;;;;;;;;4895830;29;45389;-86
2021/11/24 06:04:09;;;;;;;;;30.00;23.67;;;;;;;;4895115;29;45563;-85
2021/11/24 06:06:34;;;;;;;;;17.67;16.67;;;;;;;;4894550;29;47494;-84
2021/11/24 06:09:00;;;;;;;;;28.33;26.00;;;;;;;;4911292;29;45390;-85
2021/11/24 06:11:25;;;;;;;;;30.00;26.00;;;;;;;;4894943;29;45557;-85
2021/11/24 06:13:51;;;;;;;;;32.00;27.00;;;;;;;;4895912;29;45519;-84
2021/11/24 06:16:16;;;;;;;;;19.00;17.67;;;;;;;;4895997;29;45447;-85
2021/11/24 06:18:42;;;;;;;;;32.67;28.00;;;;;;;;4911853;29;45367;-85
2021/11/24 06:21:07;;;;;;;;;25.33;21.33;;;;;;;;4893413;29;45336;-84
2021/11/24 06:23:33;;;;;;;;;30.67;27.33;;;;;;;;4893587;29;46010;-84
2021/11/24 06:25:58;;;;;;;;;25.67;25.67;;;;;;;;4909769;29;45431;-85
2021/11/24 06:28:24;;;;;;;;;30.33;26.00;;;;;;;;4893382;29;45471;-85
2021/11/24 06:30:49;;;;;;;;;36.33;30.33;;;;;;;;4893745;29;45453;-84
2021/11/24 06:33:14;;;;;;;;;28.67;26.67;;;;;;;;4912689;29;45283;-84
2021/11/24 06:35:40;;;;;;;;;31.00;27.00;;;;;;;;4896655;29;47348;-85
2021/11/24 06:38:05;;;;;;;;;24.67;22.00;;;;;;;;4926820;28;45380;-85
2021/11/24 06:40:32;;;;;;;;;25.67;23.67;;;;;;;;4927061;28;45706;-84
2021/11/24 06:42:57;;;;;;;;;21.67;17.33;;;;;;;;4911456;29;45408;-85
2021/11/24 06:45:23;;;;;;;;;22.67;19.00;;;;;;;;4910367;29;45781;-85
2021/11/24 06:47:48;;;;;;;;;25.67;21.67;;;;;;;;4893365;29;46355;-85
2021/11/24 06:50:14;;;;;;;;;23.33;22.00;;;;;;;;4910031;29;45379;-84
2021/11/24 06:52:39;;;;;;;;;32.33;26.00;;;;;;;;4892172;29;45417;-85
2021/11/24 06:55:05;;;;;;;;;31.00;27.67;;;;;;;;4894445;29;47712;-85
2021/11/24 06:57:31;;;;;;;;;26.33;25.67;;;;;;;;4911323;29;45480;-85
2021/11/24 06:59:57;;;;;;;;;21.67;19.33;;;;;;;;4912793;29;45711;-85
2021/11/24 07:02:23;;;;;;;;;30.00;23.00;;;;;;;;4899313;29;45446;-85
2021/11/24 07:04:48;;;;;;;;;18.67;18.33;;;;;;;;4895133;29;46926;-86
2021/11/24 07:07:13;;;;;;;;;26.33;22.00;;;;;;;;4914306;28;44827;-86
2021/11/24 07:09:41;;;;;;;;;23.33;19.33;;;;;;;;4913516;28;45464;-85
2021/11/24 07:12:07;;;;;;;;;27.00;21.67;;;;;;;;4892229;29;45426;-86
2021/11/24 07:14:32;;;;;;;;;27.00;24.33;;;;;;;;4872945;29;46878;-86
2021/11/24 07:16:59;;;;;;;;;26.67;24.67;;;;;;;;4872612;29;45519;-86
2021/11/24 07:19:24;;;;;;;;;26.00;24.33;;;;;;;;4876399;29;45471;-85
2021/11/24 07:21:51;;;;;;;;;22.33;21.00;;;;;;;;4873757;29;45541;-86
2021/11/24 07:24:16;;;;;;;;;26.67;22.00;;;;;;;;4897477;29;45008;-86
2021/11/24 07:26:42;;;;;;;;;27.00;21.67;;;;;;;;4879375;29;45793;-86
2021/11/24 07:29:07;;;;;;;;;19.33;17.00;;;;;;;;4893647;29;44991;-86
2021/11/24 07:31:36;;;;;;;;;29.67;21.00;;;;;;;;4876707;29;45966;-86
2021/11/24 07:34:01;;;;;;;;;31.67;23.33;;;;;;;;4875511;29;45565;-86
2021/11/24 07:36:26;;;;;;;;;21.00;17.00;;;;;;;;4875037;29;45451;-86
2021/11/24 07:38:51;;;;;;;;;30.00;26.33;;;;;;;;4858731;29;45362;-86
2021/11/24 07:41:17;;;;;;;;;28.33;23.33;;;;;;;;4858466;29;44830;-85
2021/11/24 07:43:45;;;;;;;;;28.33;26.67;;;;;;;;4868519;29;47317;-87
2021/11/24 07:46:26;;;;;;;;;23.33;23.00;;;;;;;;4891858;29;45486;-86
2021/11/24 07:48:52;;;;;;;;;26.33;22.00;;;;;;;;4861057;29;45498;-86
2021/11/24 07:51:17;;;;;;;;;28.00;23.33;;;;;;;;4876956;29;44882;-85
2021/11/24 07:53:45;;;;;;;;;28.00;21.00;;;;;;;;4884735;29;47193;-85
2021/11/24 07:56:11;;;;;;;;;23.00;23.00;;;;;;;;4896419;29;45463;-86
2021/11/24 07:58:40;;;;;;;;;25.67;20.00;;;;;;;;4899073;29;45420;-86
2021/11/24 08:01:13;;;;;;;;;20.00;18.67;;;;;;;;4894185;29;45415;-86
2021/11/24 08:03:41;;;;;;;;;29.67;27.33;;;;;;;;4912888;29;45396;-86
2021/11/24 08:06:07;;;;;;;;;28.67;23.33;;;;;;;;4893644;29;45479;-84
2021/11/24 08:08:40;;;;;;;;;22.00;20.67;;;;;;;;4914094;28;45380;-85
2021/11/24 08:14:08;;;;;;;;;22.00;17.67;;;;;;;;4912657;29;45885;-85
2021/11/24 08:16:37;;;;;;;;;20.00;18.33;;;;;;;;4897245;29;45686;-85
2021/11/24 08:19:13;;;;;;;;;;;;;;;;;;;;;
2021/11/24 08:25:50;;;;;;;;;26.00;22.00;;;;;;;;4895178;29;47003;-87
2021/11/24 08:28:55;;;;;;;;;30.67;25.00;;;;;;;;4819894;29;45598;-90
2021/11/24 08:34:36;;;;;;;;;18.00;17.00;;;;;;;;4834750;29;46250;-86
2021/11/24 08:49:45;;;;;;;;;19.67;16.67;;;;;;;;4836689;29;45006;-86
2021/11/24 08:55:38;;;;;;;;;21.00;20.67;;;;;;;;4831665;29;44906;-85
2021/11/24 09:10:26;;;;;;;;;;;;;;;;;;;;;
2021/11/24 09:12:52;;;;;;;;;29.67;23.33;;;;;;;;4839533;29;74384;-85
2021/11/24 09:15:41;;;;;;;;;27.67;23.67;;;;;;;;4841968;29;44793;-88
2021/11/24 09:18:06;;;;;;;;;27.33;24.33;;;;;;;;4822610;29;44886;-85
2021/11/24 09:21:09;;;;;;;;;24.00;24.00;;;;;;;;4828527;29;45494;-88
2021/11/24 09:24:14;;;;;;;;;23.67;20.33;;;;;;;;4840974;29;46540;-86
2021/11/24 09:29:59;;;;;;;;;21.00;21.00;;;;;;;;4821804;29;44923;-86
2021/11/24 09:32:54;;;;;;;;;21.33;20.33;;;;;;;;4856812;29;45428;-87
2021/11/24 09:44:40;;;;;;;;;30.67;25.67;;;;;;;;4754498;29;44901;-86
2021/11/24 09:50:22;;;;;;;;;26.00;21.00;;;;;;;;4757354;29;45485;-85
2021/11/24 09:52:58;;;;;;;;;20.67;20.67;;;;;;;;4765605;29;44909;-86
2021/11/24 09:55:41;;;;;;;;;30.00;26.00;;;;;;;;4767527;29;45549;-85
2021/11/24 09:58:15;;;;;;;;;28.33;27.67;;;;;;;;4805479;29;47081;-85
2021/11/24 10:00:48;;;;;;;;;17.00;12.33;;;;;;;;4784320;29;44962;-85
2021/11/24 10:03:15;;;;;;;;;23.33;23.33;;;;;;;;4820638;29;45472;-84
2021/11/24 10:06:14;;;;;;;;;;;;;;;;;;;;;
2021/11/24 10:08:40;;;;;;;;;27.00;20.33;;;;;;;;4825847;29;75748;-85
2021/11/24 10:11:21;;;;;;;;;20.67;18.67;;;;;;;;4817807;29;45382;-86
2021/11/24 10:13:50;;;;;;;;;25.33;21.00;;;;;;;;4822596;29;45413;-85
2021/11/24 10:16:22;;;;;;;;;28.67;22.33;;;;;;;;4816659;29;45424;-85
2021/11/24 10:18:58;;;;;;;;;27.33;25.67;;;;;;;;4891421;28;46677;-84
2021/11/24 10:21:23;;;;;;;;;30.67;25.67;;;;;;;;4916843;28;45419;-87
2021/11/24 10:23:49;;;;;;;;;25.00;22.00;;;;;;;;4917429;28;44769;-86
2021/11/24 10:26:27;;;;;;;;;26.67;23.00;;;;;;;;4906633;29;45733;-86
2021/11/24 10:31:57;;;;;;;;;28.33;25.67;;;;;;;;4913267;29;45460;-86
2021/11/24 10:34:24;;;;;;;;;24.00;19.67;;;;;;;;4910910;28;44835;-85
2021/11/24 10:36:53;;;;;;;;;25.00;22.67;;;;;;;;4917100;28;44888;-87
2021/11/24 10:39:19;;;;;;;;;30.67;25.33;;;;;;;;4917168;28;45351;-86
2021/11/24 10:47:52;;;;;;;;;25.67;20.67;;;;;;;;4838189;29;45370;-86
2021/11/24 10:50:25;;;;;;;;;25.33;22.67;;;;;;;;4855626;29;45709;-85
2021/11/24 10:53:26;;;;;;;;;29.67;25.33;;;;;;;;4852438;29;45587;-86
2021/11/24 10:55:53;;;;;;;;;19.67;19.67;;;;;;;;4906594;28;45621;-86
2021/11/24 10:58:44;;;;;;;;;22.33;22.33;;;;;;;;4915477;29;44885;-86
2021/11/24 11:01:27;;;;;;;;;35.00;26.33;;;;;;;;4899498;29;47515;-87
2021/11/24 11:04:20;;;;;;;;;;;;;;;;;;;;;
2021/11/24 11:07:08;;;;;;;;;26.33;24.33;;;;;;;;4887045;29;45500;-88
2021/11/24 11:13:13;;;;;;;;;;;;;;;;;;;;;
2021/11/24 11:16:08;;;;;;;;;28.67;22.00;;;;;;;;4899643;29;45368;-86
2021/11/24 11:19:05;;;;;;;;;20.33;19.67;;;;;;;;4910903;29;45008;-88
2021/11/24 11:21:36;;;;;;;;;31.33;25.67;;;;;;;;4912508;29;45412;-85
2021/11/24 11:27:10;;;;;;;;;23.00;23.00;;;;;;;;4909348;29;45410;-83
2021/11/24 11:29:40;;;;;;;;;27.00;24.33;;;;;;;;4899385;29;45503;-84
2021/11/24 11:32:17;;;;;;;;;25.00;21.67;;;;;;;;4900817;29;45387;-86
2021/11/24 11:34:51;;;;;;;;;34.00;28.00;;;;;;;;4900823;29;47869;-83
2021/11/24 11:37:18;;;;;;;;;28.00;28.00;;;;;;;;4900897;29;45298;-85
2021/11/24 11:40:25;;;;;;;;;30.00;28.00;;;;;;;;4919649;29;44761;-87
2021/11/24 11:42:55;;;;;;;;;24.00;24.00;;;;;;;;4846385;29;45502;-85
2021/11/24 11:45:32;;;;;;;;;35.33;28.67;;;;;;;;4844992;29;46205;-88
2021/11/24 11:48:09;;;;;;;;;33.33;29.00;;;;;;;;4842433;29;45818;-85
2021/11/24 11:50:47;;;;;;;;;28.00;26.00;;;;;;;;4840994;29;44823;-84
2021/11/24 11:53:38;;;;;;;;;29.00;27.33;;;;;;;;4857679;29;45412;-87
2021/11/24 11:56:46;;;;;;;;;;;;;;;;;;;;;
2021/11/24 11:59:57;;;;;;;;;33.00;29.00;;;;;;;;4808644;29;73217;-89
2021/11/24 12:05:59;;;;;;;;;32.33;25.33;;;;;;;;4741483;30;44834;-85
2021/11/24 12:15:14;;;;;;;;;;;;;;;;;;;;;
2021/11/24 12:21:12;;;;;;;;;31.33;29.67;;;;;;;;4727239;30;45635;-84
2021/11/24 12:23:41;;;;;;;;;24.67;21.67;;;;;;;;4723563;30;45010;-85
2021/11/24 12:26:24;;;;;;;;;33.33;24.33;;;;;;;;4726631;30;45504;-85
2021/11/24 12:29:05;;;;;;;;;28.33;23.33;;;;;;;;4715421;30;45571;-87
2021/11/24 12:31:56;;;;;;;;;30.67;28.33;;;;;;;;4728593;30;46842;-87
2021/11/24 12:34:33;;;;;;;;;30.00;23.00;;;;;;;;4678345;30;44901;-87
2021/11/24 12:37:27;;;;;;;;;27.00;22.00;;;;;;;;4662312;30;45604;-84
2021/11/24 12:47:04;;;;;;;;;30.67;28.00;;;;;;;;4802810;29;45587;-85
2021/11/24 12:49:32;;;;;;;;;26.00;25.00;;;;;;;;4809476;29;45595;-85
2021/11/24 12:55:29;;;;;;;;;26.67;25.00;;;;;;;;4851347;29;46048;-85
2021/11/24 12:58:00;;;;;;;;;35.00;29.67;;;;;;;;4837609;29;44993;-85
2021/11/24 13:00:30;;;;;;;;;22.33;21.67;;;;;;;;4837541;29;44890;-83
2021/11/24 13:03:04;;;;;;;;;28.33;24.00;;;;;;;;4835718;29;45682;-86
2021/11/24 13:05:30;;;;;;;;;27.00;23.00;;;;;;;;4871308;29;47996;-85
2021/11/24 13:08:01;;;;;;;;;25.33;22.33;;;;;;;;4881713;29;45636;-85
2021/11/24 13:10:58;;;;;;;;;21.67;21.67;;;;;;;;4884329;29;44996;-87
2021/11/24 13:16:40;;;;;;;;;;;;;;;;;;;;;
2021/11/24 13:19:06;;;;;;;;;21.00;19.67;;;;;;;;4816003;29;71879;-85
2021/11/24 13:21:32;;;;;;;;;23.00;20.00;;;;;;;;4817573;29;44887;-85
2021/11/24 13:24:08;;;;;;;;;20.33;18.33;;;;;;;;4817195;29;45599;-86
2021/11/24 13:26:52;;;;;;;;;20.67;18.00;;;;;;;;4812232;29;46791;-85
2021/11/24 13:29:24;;;;;;;;;21.00;18.33;;;;;;;;4817288;29;45502;-85
2021/11/24 14:21:14;;;;;;;;;19.33;16.33;;;;;;;;4901498;29;45203;-86
2021/11/24 14:32:39;;;;;;;;;16.67;14.67;;;;;;;;4818996;29;45332;-86
2021/11/24 14:35:20;;;;;;;;;15.33;15.00;;;;;;;;4815124;29;46412;-83
2021/11/24 14:37:46;;;;;;;;;20.67;20.00;;;;;;;;4801919;29;45372;-84
2021/11/24 14:43:57;;;;;;;;;;;;;;;;;;;;;
2021/11/24 14:46:30;;;;;;;;;16.33;14.67;;;;;;;;4836747;29;74000;-84
2021/11/24 14:55:43;;;;;;;;;11.67;10.67;;;;;;;;4801066;29;45377;-87
2021/11/24 14:58:37;;;;;;;;;16.67;14.33;;;;;;;;4762243;29;47118;-85
2021/11/24 15:01:46;;;;;;;;;;;;;;;;;;;;;
2021/11/24 15:07:02;;;;;;;;;14.00;12.33;;;;;;;;5752927;23;46981;-85
2021/11/24 15:09:34;;;;;;;;;15.67;14.00;;;;;;;;4881469;29;45591;-88
2021/11/24 15:12:03;;;;;;;;;15.00;12.00;;;;;;;;4877367;29;45367;-86
2021/11/24 15:14:53;;;;;;;;;16.00;12.67;;;;;;;;4887188;29;45489;-85
2021/11/24 15:17:18;;;;;;;;;12.67;12.67;;;;;;;;4876605;29;45355;-86
2021/11/24 15:32:25;;;;;;;;;16.33;14.00;;;;;;;;4896033;29;45419;-85
2021/11/24 15:35:05;;;;;;;;;13.67;13.67;;;;;;;;4812393;29;45473;-87
2021/11/24 15:37:33;;;;;;;;;10.00;10.00;;;;;;;;4873270;29;44824;-86
2021/11/24 15:40:02;;;;;;;;;15.00;15.00;;;;;;;;4873155;29;44825;-86
2021/11/24 15:51:58;;;;;;;;;20.67;14.33;;;;;;;;4854991;29;44868;-87
2021/11/24 15:54:39;;;;;;;;;;;;;;;;;;;;;
2021/11/24 15:57:17;;;;;;;;;13.33;12.00;;;;;;;;4854564;29;71985;-86
2021/11/24 16:00:32;;;;;;;;;11.67;11.33;;;;;;;;4849365;29;45437;-87
2021/11/24 16:02:35;;;;;;;;;7.00;7.00;;;;;;;;4851054;29;45129;-87
2021/11/24 16:05:09;;;;;;;;;11.00;11.00;;;;;;;;4845497;29;47185;-87
2021/11/24 16:07:44;;;;;;;;;12.00;11.00;;;;;;;;4841373;29;45639;-86
2021/11/24 16:10:10;;;;;;;;;13.33;13.33;;;;;;;;4842382;29;45587;-85
2021/11/24 16:12:46;;;;;;;;;15.67;15.67;;;;;;;;4818503;29;45412;-87
2021/11/24 16:15:17;;;;;;;;;11.00;11.00;;;;;;;;4837061;29;45747;-86
2021/11/24 16:17:47;;;;;;;;;17.00;15.00;;;;;;;;4850808;29;45781;-85
2021/11/24 16:20:13;;;;;;;;;13.33;13.33;;;;;;;;4851668;29;45201;-86
2021/11/24 16:23:24;;;;;;;;;18.00;16.67;;;;;;;;4842740;29;44973;-87
2021/11/24 16:25:57;;;;;;;;;18.00;16.00;;;;;;;;4861675;29;45786;-86
2021/11/24 16:28:29;;;;;;;;;17.33;17.33;;;;;;;;4869350;29;46730;-87
2021/11/24 16:31:54;;;;;;;;;15.33;15.33;;;;;;;;4853540;29;45465;-87
2021/11/24 16:34:10;;;;;;;;;15.00;15.00;;;;;;;;4857914;29;47415;-87
2021/11/24 16:36:45;;;;;;;;;16.00;15.33;;;;;;;;4871794;29;46712;-88
2021/11/24 16:42:35;;;;;;;;;15.00;14.67;;;;;;;;4847776;29;44830;-87
2021/11/24 16:47:56;;;;;;;;;15.33;13.00;;;;;;;;4866675;29;45270;-87
2021/11/24 16:50:23;;;;;;;;;14.00;14.00;;;;;;;;4883771;29;45388;-88
2021/11/24 16:52:50;;;;;;;;;16.00;15.00;;;;;;;;4853777;29;45443;-85
2021/11/24 16:55:19;;;;;;;;;16.67;15.00;;;;;;;;4860590;29;45362;-85
2021/11/24 16:57:58;;;;;;;;;15.67;14.67;;;;;;;;4846340;29;48046;-85
2021/11/24 17:00:24;;;;;;;;;16.33;16.00;;;;;;;;4856091;29;45880;-85
2021/11/24 17:03:09;;;;;;;;;17.67;16.00;;;;;;;;4875616;29;45326;-85
2021/11/24 17:05:34;;;;;;;;;17.33;17.33;;;;;;;;4873078;29;45561;-86
2021/11/24 17:08:08;;;;;;;;;11.33;11.33;;;;;;;;4876878;29;45502;-84
2021/11/24 17:10:35;;;;;;;;;13.33;12.00;;;;;;;;4874342;29;45485;-84
2021/11/24 17:13:02;;;;;;;;;20.00;18.33;;;;;;;;4857655;29;45319;-86
2021/11/24 17:15:32;;;;;;;;;16.33;13.33;;;;;;;;4858824;29;45055;-87
2021/11/24 17:18:08;;;;;;;;;11.67;11.67;;;;;;;;4855311;29;45487;-84
2021/11/24 17:20:34;;;;;;;;;15.67;14.00;;;;;;;;4851941;29;45751;-84
2021/11/24 17:23:03;;;;;;;;;14.67;12.00;;;;;;;;4879925;29;45533;-84
2021/11/24 17:25:29;;;;;;;;;20.33;16.67;;;;;;;;4871847;29;45010;-85
2021/11/24 17:30:57;;;;;;;;;19.33;17.00;;;;;;;;4875015;29;44941;-85
2021/11/24 17:33:24;;;;;;;;;17.00;14.00;;;;;;;;4866446;29;44900;-85
2021/11/24 17:35:52;;;;;;;;;15.67;15.67;;;;;;;;4874361;29;45335;-85
2021/11/24 17:38:21;;;;;;;;;14.67;13.33;;;;;;;;4852787;29;45458;-86
2021/11/24 17:40:46;;;;;;;;;23.00;19.00;;;;;;;;4854862;29;45806;-85
2021/11/24 17:43:13;;;;;;;;;15.00;14.67;;;;;;;;4843191;29;44935;-85
2021/11/24 17:45:48;;;;;;;;;15.67;14.33;;;;;;;;4848510;29;45662;-85
2021/11/24 17:48:14;;;;;;;;;10.00;10.00;;;;;;;;4864428;29;45508;-85
2021/11/24 17:50:46;;;;;;;;;19.33;16.33;;;;;;;;4860997;29;45515;-84
2021/11/24 17:53:11;;;;;;;;;15.67;15.67;;;;;;;;4881281;29;45387;-85
2021/11/24 17:55:37;;;;;;;;;15.67;12.67;;;;;;;;4873524;29;45557;-86
2021/11/24 17:58:02;;;;;;;;;12.00;12.00;;;;;;;;4871267;29;47395;-84
2021/11/24 18:00:28;;;;;;;;;17.00;15.67;;;;;;;;4850945;29;45430;-84
2021/11/24 18:02:57;;;;;;;;;14.00;12.33;;;;;;;;4869959;29;45361;-86
2021/11/24 18:05:23;;;;;;;;;15.67;13.67;;;;;;;;4855675;29;45504;-85
2021/11/24 18:07:48;;;;;;;;;17.33;15.33;;;;;;;;4857112;29;45382;-85